Time;durP1;ratioP1;P1;durP2;ratioP2;P2;SDS_P1;SDS_P2;PMS_P1;PMS_P2;Temp;Humidity;BMP_temperature;BMP_pressure;BME280_temperature;BME280_humidity;BME280_pressure;Samples;Min_cycle;Max_cycle;Signal;HPM_P1;HPM_P2
2024/03/01 00:50:35;;;;;;;37.33;21.97;;;;;;;8.23;58.35;97808.59;6499996;30;20564;-85
2024/03/01 00:54:31;;;;;;;45.87;22.83;;;;;;;8.11;58.45;97796.84;6605080;29;20219;-87
2024/03/01 01:06:26;;;;;;;49.37;24.20;;;;;;;7.32;58.60;97775.88;6725291;29;20197;-85
2024/03/01 01:36:43;;;;;;;49.90;27.03;;;;;;;8.52;58.55;97791.91;6451303;30;20222;-85
2024/03/01 02:36:53;;;;;;;50.93;25.73;;;;;;;8.43;58.25;97711.81;6394125;30;20285;-85
2024/03/01 02:53:03;;;;;;;46.33;25.20;;;;;;;7.82;58.64;97663.25;6401858;30;20237;-86
2024/03/01 03:47:53;;;;;;;43.60;24.47;;;;;;;8.47;57.01;97644.00;6466512;30;20277;-85
2024/03/01 04:05:01;;;;;;;50.77;27.03;;;;;;;8.57;60.36;97743.72;6431855;30;20223;-86
2024/03/01 04:09:03;;;;;;;49.10;26.43;;;;;;;9.10;59.33;97744.91;6610726;29;20242;-84
2024/03/01 04:12:28;;;;;;;50.17;25.33;;;;;;;8.95;58.54;97700.63;6640074;29;20203;-85
2024/03/01 04:15:50;;;;;;;52.60;26.30;;;;;;;9.10;58.94;97763.75;6677837;29;20217;-86
2024/03/01 04:23:53;;;;;;;50.80;25.90;;;;;;;8.49;60.39;97770.03;6668335;29;20210;-88
2024/03/01 04:27:25;;;;;;;42.53;25.27;;;;;;;8.43;60.44;97758.28;6702263;29;20244;-87
2024/03/01 04:49:46;;;;;;;;;;;;;;;;;;;;;
2024/03/01 05:20:16;;;;;;;56.00;28.80;;;;;;;9.11;59.40;97811.91;6390310;30;20255;-85
2024/03/01 05:23:59;;;;;;;52.97;26.93;;;;;;;8.93;60.15;97818.25;6369166;30;20314;-84
2024/03/01 05:27:29;;;;;;;50.67;25.83;;;;;;;9.11;60.49;97805.72;6425622;30;20236;-86
2024/03/01 05:30:52;;;;;;;51.10;27.13;;;;;;;8.82;59.49;97723.06;6421619;30;20729;-88
2024/03/01 05:34:13;;;;;;;47.20;26.23;;;;;;;8.86;59.21;97699.25;6431686;30;20215;-85
2024/03/01 05:37:38;;;;;;;48.83;26.87;;;;;;;9.61;60.11;97818.88;6494086;30;20239;-86
2024/03/01 05:41:01;;;;;;;51.57;26.90;;;;;;;9.73;59.62;97803.63;6494461;30;20254;-86
2024/03/01 05:44:25;;;;;;;46.70;26.87;;;;;;;10.04;58.95;97825.03;6493582;30;20216;-87
2024/03/01 05:47:47;;;;;;;52.33;28.93;;;;;;;10.09;58.49;97810.94;6494209;30;20262;-86
2024/03/01 05:51:12;;;;;;;52.63;29.53;;;;;;;10.18;58.30;97788.84;6522632;30;20237;-88
2024/03/01 05:54:35;;;;;;;56.03;29.33;;;;;;;10.56;57.93;97826.25;6617584;29;20204;-86
2024/03/01 05:57:58;;;;;;;53.87;30.43;;;;;;;10.46;58.23;97825.97;6745322;29;20226;-87
2024/03/01 06:01:20;;;;;;;52.90;28.03;;;;;;;10.02;57.50;97729.34;6767910;29;20230;-85
2024/03/01 06:04:42;;;;;;;53.57;31.23;;;;;;;10.36;58.10;97817.59;6751497;29;20201;-87
2024/03/01 06:08:06;;;;;;;51.17;30.27;;;;;;;10.41;57.91;97829.34;6740301;29;20229;-84
2024/03/01 06:11:35;;;;;;;55.50;29.07;;;;;;;10.39;58.33;97828.75;6743431;29;20215;-86
2024/03/01 06:19:51;;;;;;;63.93;29.90;;;;;;;10.20;58.40;97808.28;6662481;29;20233;-86
2024/03/01 06:23:57;;;;;;;58.60;30.80;;;;;;;9.95;59.27;97791.38;6737997;29;20239;-84
2024/03/01 06:27:39;;;;;;;56.80;30.17;;;;;;;10.04;58.52;97773.06;6739493;29;20239;-90
2024/03/01 06:31:02;;;;;;;53.37;30.17;;;;;;;10.20;59.59;97840.59;6742283;29;20212;-84
2024/03/01 06:34:24;;;;;;;57.20;30.77;;;;;;;10.34;58.38;97790.88;6740859;29;20275;-87
2024/03/01 06:37:45;;;;;;;52.87;29.43;;;;;;;10.76;57.85;97848.34;6736351;29;20277;-86
2024/03/01 06:41:08;;;;;;;52.43;29.53;;;;;;;10.25;57.60;97786.03;6742044;29;20323;-87
2024/03/01 06:44:41;;;;;;;53.13;28.13;;;;;;;10.67;58.08;97845.16;6735153;29;20214;-88
2024/03/01 07:02:09;;;;;;;45.87;27.07;;;;;;;10.99;58.07;97856.50;6658785;29;20315;-86
2024/03/01 07:23:25;;;;;;;55.17;30.70;;;;;;;10.70;59.49;97836.59;6568771;30;20228;-87
2024/03/01 07:39:39;;;;;;;49.17;29.23;;;;;;;11.11;59.09;97825.78;6644974;29;20222;-86
2024/03/01 07:43:01;;;;;;;55.37;29.10;;;;;;;11.31;58.58;97814.69;6656002;29;20716;-87
2024/03/01 07:46:26;;;;;;;48.93;28.73;;;;;;;11.19;58.38;97793.09;6656993;29;20229;-86
2024/03/01 07:49:49;;;;;;;46.07;28.00;;;;;;;11.43;58.09;97807.41;6656992;29;20211;-86
2024/03/01 07:53:10;;;;;;;55.97;31.37;;;;;;;11.71;57.50;97789.50;6659290;29;20243;-87
2024/03/01 07:56:36;;;;;;;59.60;31.70;;;;;;;11.26;57.30;97703.94;6661712;29;20256;-87
2024/03/01 07:59:57;;;;;;;51.77;29.77;;;;;;;11.56;56.97;97769.41;6672588;29;20280;-87
2024/03/01 08:03:19;;;;;;;54.97;31.03;;;;;;;11.72;57.18;97788.44;6746355;29;20794;-91
2024/03/01 08:06:41;;;;;;;60.53;35.53;;;;;;;11.58;57.62;97824.81;6747574;29;20242;-86
2024/03/01 08:10:05;;;;;;;58.40;33.80;;;;;;;11.88;57.89;97822.00;6746981;29;20223;-88
2024/03/01 08:13:28;;;;;;;56.87;33.27;;;;;;;12.13;57.56;97827.94;6747162;29;20213;-86
2024/03/01 08:16:53;;;;;;;50.07;30.03;;;;;;;11.84;57.29;97759.53;6747967;29;20228;-86
2024/03/01 08:20:35;;;;;;;52.83;31.73;;;;;;;11.99;57.30;97776.03;6746262;29;20204;-86
2024/03/01 08:23:56;;;;;;;49.50;30.00;;;;;;;12.11;57.33;97806.53;6745646;29;20212;-86
2024/03/01 08:27:23;;;;;;;56.03;32.30;;;;;;;12.20;57.51;97824.03;6744678;29;20242;-88
2024/03/01 08:30:46;;;;;;;51.40;29.20;;;;;;;12.39;57.63;97824.69;6746570;29;20220;-86
2024/03/01 08:34:17;;;;;;;51.13;30.23;;;;;;;11.61;58.08;97791.13;6746435;29;20256;-85
2024/03/01 08:37:39;;;;;;;49.83;30.33;;;;;;;12.23;57.52;97806.53;6749422;29;20275;-86
2024/03/01 08:41:11;;;;;;;53.93;30.63;;;;;;;11.69;58.21;97745.69;6748626;29;20319;-85
2024/03/01 08:45:06;;;;;;;64.43;33.30;;;;;;;12.33;58.01;97823.75;6749562;29;20224;-85
2024/03/01 08:48:32;;;;;;;68.50;36.40;;;;;;;12.33;57.84;97809.44;6748359;29;20662;-86
2024/03/01 08:51:57;;;;;;;66.13;33.67;;;;;;;12.18;57.74;97803.72;6748495;29;20199;-87
2024/03/01 08:55:52;;;;;;;59.07;32.40;;;;;;;11.98;59.40;97819.50;6747715;29;20213;-88
2024/03/01 08:59:52;;;;;;;59.87;32.20;;;;;;;11.92;60.07;97823.16;6743002;29;20228;-86
2024/03/01 09:03:16;;;;;;;58.07;33.00;;;;;;;12.07;58.78;97775.69;6738054;29;20228;-85
2024/03/01 09:06:39;;;;;;;60.00;30.60;;;;;;;12.68;58.87;97834.47;6742547;29;20202;-82
2024/03/01 09:10:01;;;;;;;60.80;31.70;;;;;;;12.22;59.46;97769.75;6742720;29;20268;-88
2024/03/01 09:13:25;;;;;;;56.60;31.30;;;;;;;12.91;58.19;97835.16;6740171;29;20220;-81
2024/03/01 09:16:47;;;;;;;52.60;32.77;;;;;;;13.12;58.22;97850.75;6737067;29;20323;-81
2024/03/01 09:20:16;;;;;;;60.10;34.33;;;;;;;13.41;58.07;97846.06;6739916;29;20209;-85
2024/03/01 09:23:39;;;;;;;52.37;30.27;;;;;;;13.47;56.88;97820.72;6737819;29;20237;-85
2024/03/01 09:27:02;;;;;;;46.97;30.37;;;;;;;13.72;56.42;97853.59;6737869;29;20311;-85
2024/03/01 09:30:24;;;;;;;46.50;27.83;;;;;;;13.93;55.23;97842.81;6737258;29;20228;-85
2024/03/01 09:33:47;;;;;;;38.60;23.57;;;;;;;13.76;55.57;97852.03;6738109;29;20264;-85
2024/03/01 09:37:12;;;;;;;35.27;22.70;;;;;;;14.02;55.40;97860.28;6739916;29;20695;-85
2024/03/01 09:41:03;;;;;;;38.50;24.37;;;;;;;14.11;55.06;97841.72;6739257;29;20215;-85
2024/03/01 09:44:34;;;;;;;41.83;26.03;;;;;;;13.02;56.38;97730.66;6734030;29;20989;-85
2024/03/01 09:48:11;;;;;;;48.70;28.90;;;;;;;13.52;57.24;97862.22;6738033;29;20433;-85
2024/03/01 09:51:34;;;;;;;44.97;27.40;;;;;;;13.56;58.41;97871.50;6739157;29;20217;-85
2024/03/01 09:55:01;;;;;;;50.73;29.33;;;;;;;13.22;59.79;97874.44;6739162;29;20218;-86
2024/03/01 09:58:31;;;;;;;54.20;30.77;;;;;;;13.62;58.59;97875.13;6737887;29;20238;-85
2024/03/01 10:02:02;;;;;;;53.30;30.57;;;;;;;13.14;59.06;97856.72;6737445;29;20296;-85
2024/03/01 10:05:39;;;;;;;54.80;30.00;;;;;;;13.33;59.01;97879.78;6737717;29;20213;-85
2024/03/01 10:09:07;;;;;;;46.10;28.63;;;;;;;13.08;59.05;97878.50;6736281;29;20243;-85
2024/03/01 10:12:37;;;;;;;32.13;21.33;;;;;;;12.91;59.35;97870.31;6736366;29;20227;-85
2024/03/01 10:16:14;;;;;;;41.60;24.20;;;;;;;13.83;58.05;97874.34;6728345;29;20227;-86
2024/03/01 10:19:46;;;;;;;41.07;25.30;;;;;;;14.25;56.97;97876.38;6732540;29;20241;-85
2024/03/01 10:23:17;;;;;;;45.87;25.90;;;;;;;14.36;56.90;97880.88;6734091;29;20325;-85
2024/03/01 10:26:42;;;;;;;22.07;13.97;;;;;;;13.07;56.79;97882.28;6734615;29;20245;-85
2024/03/01 10:30:10;;;;;;;25.30;16.47;;;;;;;14.08;55.46;97869.31;6734389;29;20248;-85
2024/03/01 10:33:44;;;;;;;25.03;17.30;;;;;;;14.53;54.99;97878.09;6737130;29;20297;-86
2024/03/01 10:37:13;;;;;;;19.13;14.03;;;;;;;14.48;54.58;97872.59;6736016;29;20326;-85
2024/03/01 10:40:40;;;;;;;23.97;14.63;;;;;;;14.53;53.99;97881.63;6735909;29;20220;-86
2024/03/01 10:44:18;;;;;;;20.77;13.97;;;;;;;14.48;54.09;97888.88;7112383;27;20521;-84
2024/03/01 10:47:41;;;;;;;22.00;14.33;;;;;;;14.54;53.60;97890.56;7109623;27;20235;-84
2024/03/01 10:51:03;;;;;;;15.13;11.33;;;;;;;14.44;54.11;97879.59;7091382;27;20212;-84
2024/03/01 10:54:28;;;;;;;17.13;12.80;;;;;;;14.07;54.86;97879.34;7086839;27;20313;-83
2024/03/01 10:57:55;;;;;;;18.27;11.90;;;;;;;14.39;54.29;97884.97;7106356;27;20355;-83
2024/03/01 11:01:28;;;;;;;16.33;10.93;;;;;;;14.17;54.02;97878.66;7099697;27;20578;-84
2024/03/01 11:04:55;;;;;;;16.03;11.03;;;;;;;14.40;54.66;97871.13;7098211;27;20292;-86
2024/03/01 11:08:25;;;;;;;14.47;10.67;;;;;;;14.43;54.14;97873.34;7091600;27;20233;-86
2024/03/01 11:11:51;;;;;;;15.27;10.77;;;;;;;14.51;54.42;97872.91;7099454;27;20210;-85
2024/03/01 11:15:13;;;;;;;13.80;9.37;;;;;;;13.76;55.04;97860.16;7097778;27;20279;-85
2024/03/01 11:18:41;;;;;;;13.77;9.77;;;;;;;14.35;54.59;97864.84;7096815;27;20251;-85
2024/03/01 11:22:09;;;;;;;15.27;10.43;;;;;;;14.67;54.01;97834.03;7082222;27;20306;-85
2024/03/01 11:43:14;;;;;;;12.73;9.40;;;;;;;14.87;54.80;97801.69;6909577;28;20226;-83
2024/03/01 11:46:46;;;;;;;13.63;10.03;;;;;;;14.84;54.01;97837.50;6908947;28;20193;-84
2024/03/01 11:50:26;;;;;;;13.90;9.40;;;;;;;14.81;54.55;97827.13;6906031;28;20292;-87
2024/03/01 11:54:11;;;;;;;12.83;8.93;;;;;;;15.38;53.26;97825.53;6875966;28;20205;-85
2024/03/01 11:57:38;;;;;;;10.30;7.90;;;;;;;15.11;53.89;97802.19;6865160;28;20808;-84
2024/03/01 12:01:13;;;;;;;9.43;7.43;;;;;;;15.01;53.56;97824.63;6863983;28;20212;-85
2024/03/01 12:04:53;;;;;;;11.80;7.70;;;;;;;15.07;55.47;97817.34;6939891;28;20206;-81
2024/03/01 12:08:34;;;;;;;8.90;7.63;;;;;;;15.75;53.67;97807.34;7002573;28;20366;-83
2024/03/01 12:12:03;;;;;;;9.37;7.43;;;;;;;15.81;53.42;97798.13;7003983;28;20303;-83
2024/03/01 12:15:29;;;;;;;10.63;7.70;;;;;;;16.11;52.72;97789.34;7004939;28;20245;-83
2024/03/01 12:19:08;;;;;;;9.63;6.97;;;;;;;16.58;51.19;97790.09;7004828;28;20284;-83
2024/03/01 12:22:43;;;;;;;10.00;7.13;;;;;;;16.28;51.64;97785.31;7004485;28;20305;-83
2024/03/01 12:26:06;;;;;;;8.67;6.90;;;;;;;16.39;50.88;97791.69;7004872;28;20232;-83
2024/03/01 12:29:37;;;;;;;9.07;6.80;;;;;;;16.30;50.96;97785.06;7011098;28;20245;-83
2024/03/01 12:33:13;;;;;;;9.40;7.10;;;;;;;16.53;49.54;97777.31;7028039;28;20230;-82
2024/03/01 12:36:43;;;;;;;12.13;7.50;;;;;;;16.64;49.39;97778.94;7028941;28;20764;-82
2024/03/01 12:40:16;;;;;;;9.67;6.80;;;;;;;16.62;51.59;97772.97;7028043;28;20205;-82
2024/03/01 12:43:54;;;;;;;12.43;6.93;;;;;;;17.00;50.34;97772.50;7028469;28;20209;-82
2024/03/01 12:47:42;;;;;;;8.93;7.40;;;;;;;17.25;49.64;97758.91;7020969;28;20239;-81
2024/03/01 12:51:13;;;;;;;10.57;6.90;;;;;;;16.54;50.04;97754.44;7028048;28;20965;-81
2024/03/01 12:54:43;;;;;;;10.37;7.60;;;;;;;16.59;50.62;97761.81;7028248;28;20214;-80
2024/03/01 12:58:11;;;;;;;8.37;6.47;;;;;;;16.99;50.17;97761.88;7027316;28;20235;-81
2024/03/01 13:01:37;;;;;;;7.90;6.87;;;;;;;17.33;48.99;97742.00;7029594;28;20678;-80
2024/03/01 13:05:07;;;;;;;12.40;8.00;;;;;;;17.32;49.17;97740.38;7029404;28;20346;-80
2024/03/01 13:08:33;;;;;;;9.73;7.00;;;;;;;17.23;49.52;97739.25;7027619;28;20600;-81
2024/03/01 13:11:57;;;;;;;7.53;6.80;;;;;;;17.60;49.05;97728.91;7028632;28;20207;-81
2024/03/01 13:15:19;;;;;;;10.17;6.50;;;;;;;17.50;47.48;97739.00;7032183;28;20677;-80
2024/03/01 13:18:49;;;;;;;7.93;6.93;;;;;;;16.97;48.67;97736.81;7031033;28;20246;-78
2024/03/01 13:22:12;;;;;;;8.63;6.93;;;;;;;17.35;48.81;97736.28;7019877;28;20587;-81
2024/03/01 13:25:37;;;;;;;8.27;6.40;;;;;;;17.52;47.89;97736.84;7028416;28;20304;-81
2024/03/01 13:29:04;;;;;;;7.90;6.67;;;;;;;17.27;47.96;97720.50;7028446;28;20271;-83
2024/03/01 13:32:34;;;;;;;9.17;6.13;;;;;;;17.31;48.13;97729.72;7034335;28;20665;-82
2024/03/01 13:36:03;;;;;;;9.53;6.37;;;;;;;16.85;48.07;97726.19;7031939;28;20208;-84
2024/03/01 13:39:27;;;;;;;8.67;7.00;;;;;;;16.84;49.65;97726.47;7030324;28;20229;-82
2024/03/01 13:42:54;;;;;;;9.07;7.67;;;;;;;16.39;50.39;97724.47;7030891;28;20302;-82
2024/03/01 13:46:23;;;;;;;8.27;6.97;;;;;;;16.12;50.19;97726.53;7030546;28;20358;-82
2024/03/01 13:49:49;;;;;;;10.10;6.97;;;;;;;16.11;50.27;97689.53;7030409;28;20203;-82
2024/03/01 13:53:13;;;;;;;9.73;7.20;;;;;;;16.53;50.02;97720.16;7029649;28;20708;-82
2024/03/01 13:56:35;;;;;;;8.70;7.80;;;;;;;16.58;49.81;97720.16;7029372;28;20236;-83
2024/03/01 13:59:57;;;;;;;11.30;8.33;;;;;;;15.98;51.04;97702.84;7029534;28;20219;-84
2024/03/01 14:03:20;;;;;;;8.53;6.93;;;;;;;15.95;51.54;97725.94;7029049;28;20262;-82
2024/03/01 14:06:46;;;;;;;13.73;10.93;;;;;;;15.73;53.18;97717.13;7028665;28;20199;-81
2024/03/01 14:10:08;;;;;;;14.67;10.40;;;;;;;15.74;53.89;97736.97;7009572;28;20198;-80
2024/03/01 14:13:30;;;;;;;16.90;12.03;;;;;;;15.54;54.42;97726.78;7029666;28;20204;-81
2024/03/01 14:16:52;;;;;;;17.33;12.50;;;;;;;15.72;55.08;97742.66;7029577;28;20591;-81
2024/03/01 14:20:16;;;;;;;18.30;12.57;;;;;;;15.44;55.11;97740.31;7029782;28;20210;-81
2024/03/01 14:23:39;;;;;;;16.53;12.07;;;;;;;15.56;55.03;97740.91;7029898;28;20228;-80
2024/03/01 14:27:01;;;;;;;14.67;10.77;;;;;;;15.64;55.02;97739.63;7031417;28;20284;-81
2024/03/01 14:30:24;;;;;;;17.03;12.77;;;;;;;15.45;55.27;97736.50;7031448;28;20288;-82
2024/03/01 14:33:57;;;;;;;16.07;12.27;;;;;;;15.42;56.12;97741.63;7030343;28;20200;-81
2024/03/01 14:37:27;;;;;;;16.73;11.23;;;;;;;15.16;55.61;97718.88;7003052;28;20312;-81
2024/03/01 14:40:55;;;;;;;19.17;13.27;;;;;;;15.33;55.21;97744.03;7029682;28;20347;-81
2024/03/01 14:44:24;;;;;;;15.50;11.97;;;;;;;15.36;55.13;97734.53;7045381;28;20240;-82
2024/03/01 14:47:46;;;;;;;15.37;11.30;;;;;;;15.26;53.65;97737.97;7035939;28;20786;-81
2024/03/01 14:51:10;;;;;;;14.67;11.17;;;;;;;14.63;54.93;97750.72;7025784;28;20209;-82
2024/03/01 14:54:33;;;;;;;15.97;10.90;;;;;;;15.05;53.89;97741.59;7032874;28;20218;-81
2024/03/01 14:57:55;;;;;;;14.33;10.63;;;;;;;14.96;54.00;97743.16;7031953;28;20224;-81
2024/03/01 15:01:17;;;;;;;15.23;10.67;;;;;;;14.63;54.10;97743.38;7032198;28;20254;-81
2024/03/01 15:04:38;;;;;;;20.40;15.37;;;;;;;14.78;54.18;97731.84;7031238;28;20596;-81
2024/03/01 15:08:00;;;;;;;18.57;11.40;;;;;;;15.00;53.34;97703.56;7030559;28;20368;-81
2024/03/01 15:11:27;;;;;;;14.30;11.27;;;;;;;14.67;54.08;97743.69;7031726;28;20699;-84
2024/03/01 15:14:49;;;;;;;17.33;11.77;;;;;;;14.55;53.78;97745.72;7026100;28;20271;-81
2024/03/01 15:18:11;;;;;;;15.50;11.53;;;;;;;14.40;54.16;97742.88;7030840;28;20264;-82
2024/03/01 15:21:34;;;;;;;15.13;11.80;;;;;;;15.06;52.83;97728.84;7024167;28;20209;-82
2024/03/01 15:25:05;;;;;;;19.83;13.30;;;;;;;15.16;52.54;97731.66;7029783;28;20695;-81
2024/03/01 15:28:28;;;;;;;18.97;12.57;;;;;;;15.30;52.86;97724.69;7030323;28;20288;-82
2024/03/01 15:31:52;;;;;;;17.90;13.07;;;;;;;15.46;52.19;97734.63;7034549;28;20212;-83
2024/03/01 15:35:13;;;;;;;16.33;12.57;;;;;;;15.19;52.28;97736.53;7033989;28;20241;-81
2024/03/01 15:38:35;;;;;;;21.27;15.37;;;;;;;15.41;52.22;97731.84;7033876;28;20229;-81
2024/03/01 15:41:57;;;;;;;14.87;11.90;;;;;;;14.93;52.52;97740.16;7034623;28;20673;-82
2024/03/01 15:45:19;;;;;;;18.70;11.93;;;;;;;14.87;52.54;97741.19;7035319;28;20212;-82
2024/03/01 15:48:41;;;;;;;19.73;12.90;;;;;;;15.19;51.96;97733.84;7035774;28;20228;-81
2024/03/01 15:52:02;;;;;;;20.53;12.50;;;;;;;14.91;51.66;97715.13;7036390;28;20211;-83
2024/03/01 15:55:24;;;;;;;21.37;12.07;;;;;;;14.37;53.82;97718.97;7034728;28;20655;-82
2024/03/01 15:58:45;;;;;;;18.70;12.73;;;;;;;15.10;53.08;97719.13;7035569;28;20224;-81
2024/03/01 16:02:08;;;;;;;39.43;18.10;;;;;;;15.55;51.90;97720.28;7037594;28;20204;-82
2024/03/01 16:05:30;;;;;;;18.50;13.20;;;;;;;15.59;52.34;97720.56;7036980;28;20227;-83
2024/03/01 16:08:52;;;;;;;17.30;11.87;;;;;;;15.72;51.75;97725.50;7035836;28;20757;-82
2024/03/01 16:12:13;;;;;;;15.30;11.30;;;;;;;15.71;51.00;97721.16;7028455;28;20648;-81
2024/03/01 16:15:35;;;;;;;20.20;12.17;;;;;;;15.53;51.46;97702.59;7029116;28;20213;-83
2024/03/01 16:18:58;;;;;;;19.17;12.40;;;;;;;15.59;51.94;97729.53;7036025;28;20263;-85
2024/03/01 16:22:19;;;;;;;20.07;12.50;;;;;;;15.66;51.30;97726.56;7034023;28;20823;-83
2024/03/01 16:25:41;;;;;;;20.07;12.03;;;;;;;15.46;51.76;97724.53;7035024;28;20304;-86
2024/03/01 16:29:02;;;;;;;15.27;11.13;;;;;;;15.76;50.85;97719.28;7038741;28;20475;-82
2024/03/01 16:32:28;;;;;;;16.13;11.30;;;;;;;15.68;50.52;97733.38;7039161;28;20210;-81
2024/03/01 16:36:02;;;;;;;14.93;11.77;;;;;;;15.59;50.91;97731.44;7038613;28;20205;-80
2024/03/01 16:39:33;;;;;;;13.53;11.23;;;;;;;15.59;50.63;97734.16;7029664;28;20265;-81
2024/03/01 16:42:56;;;;;;;17.13;11.93;;;;;;;15.26;51.68;97713.53;7031085;28;20216;-83
2024/03/01 16:46:24;;;;;;;15.53;12.47;;;;;;;14.85;52.51;97716.16;7031139;28;20211;-82
2024/03/01 16:49:46;;;;;;;18.83;12.70;;;;;;;14.75;52.79;97716.91;7030158;28;20208;-82
2024/03/01 16:53:10;;;;;;;17.37;12.30;;;;;;;15.12;52.38;97719.66;7030493;28;20682;-84
2024/03/01 16:56:34;;;;;;;16.30;11.40;;;;;;;15.06;52.49;97716.09;7030256;28;20222;-82
2024/03/01 16:59:56;;;;;;;18.90;12.53;;;;;;;15.00;53.05;97719.03;7027699;28;20247;-82
2024/03/01 17:03:27;;;;;;;19.27;12.80;;;;;;;14.66;53.36;97715.75;7025650;28;20227;-82
2024/03/01 17:06:49;;;;;;;20.50;13.30;;;;;;;14.75;53.48;97707.97;7030230;28;20227;-81
2024/03/01 17:10:20;;;;;;;19.03;13.07;;;;;;;14.72;53.35;97722.88;7035704;28;20207;-82
2024/03/01 17:13:43;;;;;;;16.67;11.77;;;;;;;14.88;53.00;97729.25;7035623;28;20203;-82
2024/03/01 17:17:04;;;;;;;19.03;12.63;;;;;;;14.97;52.57;97719.53;7035063;28;20310;-80
2024/03/01 17:20:28;;;;;;;18.90;13.33;;;;;;;14.73;52.88;97710.09;7031029;28;20211;-80
2024/03/01 17:23:50;;;;;;;19.43;13.50;;;;;;;14.67;53.12;97722.81;7034337;28;20369;-81
2024/03/01 17:27:13;;;;;;;17.47;12.70;;;;;;;14.86;52.68;97731.41;7034808;28;20707;-80
2024/03/01 17:30:34;;;;;;;20.43;13.00;;;;;;;14.40;53.55;97732.84;7031819;28;20278;-80
2024/03/01 17:33:56;;;;;;;22.63;16.53;;;;;;;14.18;54.06;97723.91;7032150;28;20678;-81
2024/03/01 17:37:17;;;;;;;24.53;16.50;;;;;;;13.85;56.36;97734.88;7028004;28;20226;-81
2024/03/01 17:40:39;;;;;;;39.03;25.23;;;;;;;13.87;56.11;97740.03;7022249;28;20237;-80
2024/03/01 17:44:03;;;;;;;24.10;16.17;;;;;;;14.36;54.79;97739.84;7033016;28;20245;-81
2024/03/01 17:47:24;;;;;;;22.13;13.63;;;;;;;14.46;54.23;97731.81;7034627;28;20319;-80
2024/03/01 17:50:46;;;;;;;18.20;13.37;;;;;;;14.02;54.96;97727.50;7029445;28;20242;-80
2024/03/01 17:54:08;;;;;;;17.73;12.47;;;;;;;14.08;54.65;97731.06;7034992;28;20207;-81
2024/03/01 17:57:29;;;;;;;18.73;12.70;;;;;;;14.37;54.06;97740.66;7030214;28;20310;-80
2024/03/01 18:00:52;;;;;;;16.93;12.93;;;;;;;14.35;54.27;97731.97;7034635;28;20239;-82
2024/03/01 18:04:14;;;;;;;15.93;12.27;;;;;;;14.22;53.90;97716.09;7032897;28;20300;-80
2024/03/01 18:07:35;;;;;;;16.77;12.27;;;;;;;14.09;54.80;97727.31;7030993;28;20272;-80
2024/03/01 18:10:57;;;;;;;14.33;10.97;;;;;;;14.30;53.79;97737.34;7032591;28;20289;-80
2024/03/01 18:14:18;;;;;;;17.73;11.60;;;;;;;14.21;54.26;97733.44;7023806;28;20749;-80
2024/03/01 18:17:41;;;;;;;16.17;12.17;;;;;;;14.21;54.51;97741.59;7021443;28;20249;-80
2024/03/01 18:21:03;;;;;;;17.30;12.60;;;;;;;14.16;54.48;97733.34;7005741;28;20209;-79
2024/03/01 18:24:24;;;;;;;14.00;10.97;;;;;;;14.06;55.10;97731.34;7028008;28;20265;-80
2024/03/01 18:27:46;;;;;;;15.50;11.47;;;;;;;14.22;54.82;97733.16;7029022;28;20234;-80
2024/03/01 18:31:08;;;;;;;17.27;12.33;;;;;;;14.27;54.53;97735.94;7027201;28;20204;-80
2024/03/01 18:34:31;;;;;;;19.23;12.63;;;;;;;14.03;54.84;97721.00;7019905;28;20193;-80
2024/03/01 18:37:52;;;;;;;15.57;12.03;;;;;;;14.06;54.62;97715.09;7022885;28;20300;-82
2024/03/01 18:41:14;;;;;;;15.73;11.63;;;;;;;14.04;54.79;97719.13;7026175;28;20286;-80
2024/03/01 18:44:35;;;;;;;15.20;12.03;;;;;;;13.87;55.00;97712.94;7027773;28;20221;-80
2024/03/01 18:47:57;;;;;;;17.90;11.90;;;;;;;13.67;55.71;97721.63;7028143;28;20322;-80
2024/03/01 18:51:20;;;;;;;16.43;13.07;;;;;;;13.57;56.16;97720.69;7028589;28;20676;-80
2024/03/01 18:54:41;;;;;;;19.57;12.87;;;;;;;13.34;56.65;97708.16;7029188;28;20331;-80
2024/03/01 18:58:03;;;;;;;17.07;13.53;;;;;;;13.55;56.48;97718.22;7029894;28;20261;-79
2024/03/01 19:01:26;;;;;;;17.53;12.77;;;;;;;13.26;57.31;97724.84;7025445;28;20688;-79
2024/03/01 19:04:47;;;;;;;14.83;12.10;;;;;;;13.57;56.65;97724.19;7023611;28;20233;-80
2024/03/01 19:08:10;;;;;;;20.40;12.80;;;;;;;13.48;56.33;97695.91;7035052;28;20267;-80
2024/03/01 19:11:32;;;;;;;16.83;12.57;;;;;;;13.62;55.86;97715.34;7034571;28;20338;-80
2024/03/01 19:14:53;;;;;;;16.47;11.37;;;;;;;13.56;55.88;97716.31;7035732;28;20201;-80
2024/03/01 19:18:15;;;;;;;12.13;10.83;;;;;;;13.52;56.03;97715.19;7034819;28;20699;-80
2024/03/01 19:21:38;;;;;;;18.03;11.63;;;;;;;13.49;55.83;97718.38;7035410;28;20290;-80
2024/03/01 19:25:01;;;;;;;15.97;11.00;;;;;;;13.39;55.65;97719.06;7035355;28;20228;-80
2024/03/01 19:28:22;;;;;;;15.60;10.50;;;;;;;13.30;55.71;97709.75;7032738;28;20226;-80
2024/03/01 19:31:44;;;;;;;14.73;10.30;;;;;;;13.09;56.03;97698.88;7035483;28;20678;-80
2024/03/01 19:35:06;;;;;;;13.30;10.67;;;;;;;13.08;55.99;97676.38;7035872;28;20687;-80
2024/03/01 19:38:28;;;;;;;14.20;10.67;;;;;;;13.22;56.23;97695.81;7025530;28;20302;-80
2024/03/01 19:41:52;;;;;;;12.20;10.00;;;;;;;13.22;56.17;97702.03;7007665;28;20749;-80
2024/03/01 19:45:14;;;;;;;18.53;11.53;;;;;;;13.22;56.24;97698.53;7006781;28;20241;-81
2024/03/01 19:48:36;;;;;;;16.50;12.57;;;;;;;13.16;56.39;97694.91;7006188;28;20719;-80
2024/03/01 19:51:57;;;;;;;16.13;11.67;;;;;;;13.14;56.67;97707.88;7037569;28;20344;-79
2024/03/01 19:55:19;;;;;;;16.80;11.70;;;;;;;12.86;57.58;97699.81;7038614;28;20254;-80
2024/03/01 19:58:41;;;;;;;15.30;11.90;;;;;;;12.65;57.71;97708.66;7038687;28;20275;-80
2024/03/01 20:02:03;;;;;;;16.80;13.17;;;;;;;12.86;57.95;97705.22;7037569;28;20281;-80
2024/03/01 20:05:25;;;;;;;30.73;17.47;;;;;;;13.16;57.57;97702.22;7038038;28;20225;-81
2024/03/01 20:08:46;;;;;;;21.77;15.20;;;;;;;13.14;57.33;97704.34;7038703;28;20224;-81
2024/03/01 20:12:08;;;;;;;16.90;13.03;;;;;;;12.92;57.54;97689.91;7039409;28;20213;-80
2024/03/01 20:15:31;;;;;;;19.77;13.77;;;;;;;13.04;57.57;97701.50;7037932;28;20224;-80
2024/03/01 20:18:53;;;;;;;18.27;12.60;;;;;;;12.93;57.67;97692.34;7037567;28;20307;-79
2024/03/01 20:22:14;;;;;;;17.63;12.40;;;;;;;12.72;57.91;97701.22;7038765;28;20237;-80
2024/03/01 20:25:37;;;;;;;21.30;12.83;;;;;;;12.66;58.28;97674.31;7037689;28;20302;-80
2024/03/01 20:28:59;;;;;;;15.70;11.80;;;;;;;12.89;57.45;97688.50;7037107;28;20217;-80
2024/03/01 20:32:21;;;;;;;16.30;12.33;;;;;;;12.75;57.36;97695.28;7037951;28;20205;-80
2024/03/01 20:35:43;;;;;;;15.93;12.07;;;;;;;12.68;57.33;97685.72;7038539;28;20228;-80
2024/03/01 20:39:05;;;;;;;18.50;11.63;;;;;;;12.74;57.12;97699.06;7038009;28;20914;-80
2024/03/01 20:42:27;;;;;;;14.80;10.63;;;;;;;12.54;56.56;97698.75;7038605;28;20200;-80
2024/03/01 20:45:48;;;;;;;16.47;11.03;;;;;;;12.36;57.35;97690.84;7038619;28;20220;-80
2024/03/01 20:49:11;;;;;;;13.90;11.20;;;;;;;12.05;57.93;97690.53;7037735;28;20248;-80
2024/03/01 20:52:33;;;;;;;17.93;11.80;;;;;;;11.92;58.31;97685.41;7038624;28;20201;-80
2024/03/01 20:55:54;;;;;;;17.47;13.83;;;;;;;11.40;59.29;97678.38;7037320;28;20225;-80
2024/03/01 20:59:16;;;;;;;21.63;15.03;;;;;;;11.78;58.96;97673.25;7037370;28;20316;-80
2024/03/01 21:02:38;;;;;;;21.33;14.17;;;;;;;11.40;59.25;97624.41;7038132;28;20346;-80
2024/03/01 21:06:01;;;;;;;19.03;13.00;;;;;;;11.67;58.96;97664.13;7038719;28;20684;-81
2024/03/01 21:09:24;;;;;;;17.03;12.97;;;;;;;11.84;59.02;97656.91;7039149;28;20224;-80
2024/03/01 21:12:45;;;;;;;14.97;12.27;;;;;;;11.62;59.67;97660.50;7041066;28;20220;-80
2024/03/01 21:16:08;;;;;;;15.87;11.73;;;;;;;11.85;59.31;97655.00;7041416;28;20200;-80
2024/03/01 21:19:29;;;;;;;18.17;12.60;;;;;;;11.75;59.20;97658.34;7040775;28;20251;-80
2024/03/01 21:22:53;;;;;;;19.43;12.10;;;;;;;11.74;59.29;97651.31;7044537;28;20205;-80
2024/03/01 21:26:15;;;;;;;13.20;11.10;;;;;;;11.89;58.89;97651.59;7039486;28;20229;-80
2024/03/01 21:29:36;;;;;;;14.50;10.53;;;;;;;11.61;58.35;97645.34;7037862;28;20317;-80